createdAt,value
2023-01-30T00:04:18.542Z,31.79
2023-01-30T00:09:41.320Z,31.60
2023-01-30T00:15:03.030Z,31.98
2023-01-30T00:20:24.793Z,31.91
2023-01-30T00:25:46.810Z,31.70
2023-01-30T00:31:08.958Z,31.72
2023-01-30T00:36:30.635Z,31.76
2023-01-30T00:42:11.086Z,31.74
2023-01-30T00:52:54.320Z,31.72
2023-01-30T00:58:16.447Z,31.77
2023-01-30T01:03:38.390Z,32.08
2023-01-30T01:09:00.153Z,32.11
2023-01-30T01:14:21.874Z,32.11
2023-01-30T01:19:43.620Z,31.70
2023-01-30T01:25:06.087Z,31.75
2023-01-30T01:30:27.843Z,31.88
2023-01-30T01:35:49.584Z,31.76
2023-01-30T01:41:13.426Z,31.68
2023-01-30T01:46:40.231Z,31.71
2023-01-30T01:52:05.764Z,32.06
2023-01-30T01:57:33.241Z,32.20
2023-01-30T02:02:58.897Z,31.81
2023-01-30T02:08:25.879Z,32.13
2023-01-30T02:13:48.478Z,32.07
2023-01-30T02:19:45.373Z,32.18
2023-01-30T02:25:34.264Z,31.78
2023-01-30T02:31:05.192Z,32.09
2023-01-30T02:36:40.729Z,32.12
2023-01-30T02:42:16.215Z,32.15
2023-01-30T02:47:56.199Z,32.27
2023-01-30T02:53:17.984Z,32.13
2023-01-30T02:58:47.355Z,32.01
2023-01-30T03:04:27.836Z,32.35
2023-01-30T03:09:55.240Z,31.95
2023-01-30T03:15:40.870Z,32.32
2023-01-30T03:21:06.964Z,32.31
2023-01-30T03:26:33.122Z,32.38
2023-01-30T03:31:54.930Z,32.00
2023-01-30T03:37:16.783Z,32.03
2023-01-30T03:42:38.466Z,32.41
2023-01-30T03:48:00.153Z,32.06
2023-01-30T03:53:21.850Z,32.29
2023-01-30T03:58:43.558Z,32.44
2023-01-30T04:04:05.494Z,32.48
2023-01-30T04:09:27.263Z,32.45
2023-01-30T04:14:49.095Z,32.10
2023-01-30T04:20:11.391Z,32.17
2023-01-30T04:25:33.112Z,32.21
2023-01-30T04:30:55.062Z,32.33
2023-01-30T04:36:16.879Z,32.18
2023-01-30T04:41:38.614Z,32.17
2023-01-30T04:47:00.310Z,32.34
2023-01-30T04:52:22.096Z,32.65
2023-01-30T04:57:43.790Z,32.23
2023-01-30T05:03:06.700Z,32.31
2023-01-30T05:08:28.395Z,32.49
2023-01-30T05:13:50.203Z,32.69
2023-01-30T05:19:14.017Z,32.67
2023-01-30T05:24:36.905Z,32.73
2023-01-30T05:29:58.611Z,32.78
2023-01-30T05:35:20.470Z,32.81
2023-01-30T05:40:42.790Z,32.41
2023-01-30T05:46:06.455Z,32.78
2023-01-30T05:51:28.220Z,32.49
2023-01-30T05:56:50.707Z,32.67
2023-01-30T06:02:12.447Z,32.58
2023-01-30T06:07:34.111Z,32.64
2023-01-30T06:12:55.855Z,32.91
2023-01-30T06:18:17.619Z,32.78
2023-01-30T06:23:39.300Z,32.92
2023-01-30T06:29:01.016Z,33.08
2023-01-30T06:34:22.720Z,32.81
2023-01-30T06:39:44.509Z,32.88
2023-01-30T06:45:06.941Z,32.85
2023-01-30T06:50:29.737Z,32.74
2023-01-30T06:55:51.463Z,32.97
2023-01-30T07:01:13.236Z,33.28
2023-01-30T07:06:34.954Z,33.17
2023-01-30T07:11:56.660Z,33.39
2023-01-30T07:17:18.621Z,33.12
2023-01-30T07:22:40.311Z,33.24
2023-01-30T07:28:03.720Z,33.13
2023-01-30T07:33:25.560Z,33.25
2023-01-30T07:38:49.617Z,33.37
2023-01-30T07:44:12.911Z,33.01
2023-01-30T07:49:34.672Z,33.28
2023-01-30T07:54:56.362Z,32.89
2023-01-30T08:00:18.935Z,33.00
2023-01-30T08:05:40.953Z,32.49
2023-01-30T08:11:02.679Z,32.36
2023-01-30T08:16:24.515Z,32.14
2023-01-30T08:21:46.266Z,31.33
2023-01-30T08:27:08.455Z,31.27
2023-01-30T08:32:30.194Z,30.91
2023-01-30T08:37:51.898Z,30.33
2023-01-30T08:43:13.621Z,31.03
2023-01-30T08:48:49.092Z,30.98
2023-01-30T08:54:11.800Z,31.13
2023-01-30T08:59:33.547Z,31.53
2023-01-30T09:04:55.260Z,31.72
2023-01-30T09:10:17.962Z,31.75
2023-01-30T09:15:43.205Z,32.19
2023-01-30T09:21:05.865Z,32.33
2023-01-30T09:26:27.651Z,32.24
2023-01-30T09:31:49.904Z,32.30
2023-01-30T09:37:11.632Z,32.68
2023-01-30T09:42:58.226Z,32.48
2023-01-30T09:48:53.819Z,32.53
2023-01-30T09:54:22.362Z,32.36
2023-01-30T09:59:56.947Z,32.58
2023-01-30T10:05:19.064Z,32.42
2023-01-30T10:11:12.889Z,32.63
2023-01-30T10:17:01.447Z,32.77
2023-01-30T10:22:53.549Z,32.25
2023-01-30T10:28:40.842Z,32.24
2023-01-30T10:34:10.749Z,32.58
2023-01-30T10:39:49.661Z,32.35
2023-01-30T10:45:20.613Z,32.48
2023-01-30T10:50:53.679Z,32.16
2023-01-30T10:56:37.335Z,32.36
2023-01-30T11:02:13.392Z,32.28
2023-01-30T11:07:35.155Z,32.24
2023-01-30T11:13:10.875Z,32.24
2023-01-30T11:19:17.633Z,32.34
2023-01-30T11:24:19.631Z,32.18
2023-01-30T11:29:41.340Z,32.52
2023-01-30T11:35:09.120Z,32.50
2023-01-30T11:40:31.831Z,32.25
2023-01-30T11:45:53.555Z,32.49
2023-01-30T11:51:16.851Z,32.22
2023-01-30T11:56:49.066Z,31.78
2023-01-30T12:02:13.563Z,31.85
2023-01-30T12:07:37.683Z,31.54
2023-01-30T12:13:06.852Z,31.50
2023-01-30T12:18:46.338Z,30.91
2023-01-30T12:24:26.020Z,31.16
2023-01-30T12:29:53.751Z,31.07
2023-01-30T12:35:24.963Z,31.23
2023-01-30T12:41:28.217Z,30.87
2023-01-30T12:47:07.950Z,31.14
2023-01-30T12:53:02.735Z,30.90
2023-01-30T12:58:35.175Z,30.87
2023-01-30T13:04:22.079Z,30.75
2023-01-30T13:10:02.158Z,30.89
2023-01-30T13:15:27.079Z,30.63
2023-01-30T13:21:20.483Z,30.77
2023-01-30T13:26:44.257Z,31.06
2023-01-30T13:32:15.248Z,30.85
2023-01-30T13:37:38.264Z,31.12
2023-01-30T13:43:07.409Z,30.99
2023-01-30T13:49:00.434Z,30.84
2023-01-30T13:54:22.099Z,30.62
2023-01-30T14:00:05.231Z,31.20
2023-01-30T14:05:51.949Z,31.22
2023-01-30T14:11:48.182Z,31.25
2023-01-30T14:17:14.376Z,30.80
2023-01-30T14:22:53.375Z,30.62
2023-01-30T14:28:18.052Z,30.58
2023-01-30T14:33:51.100Z,30.92
2023-01-30T14:39:38.985Z,30.36
2023-01-30T14:45:42.111Z,30.48
2023-01-30T14:51:26.319Z,30.82
2023-01-30T14:57:16.459Z,30.75
2023-01-30T15:02:44.416Z,30.57
2023-01-30T15:08:15.609Z,30.88
2023-01-30T15:13:40.428Z,30.58
2023-01-30T15:19:23.225Z,30.91
2023-01-30T15:25:09.541Z,30.44
2023-01-30T15:31:00.834Z,30.43
2023-01-30T15:36:34.455Z,29.71
2023-01-30T15:42:05.998Z,29.58
2023-01-30T15:47:42.716Z,29.32
2023-01-30T15:53:09.010Z,29.33
2023-01-30T15:58:32.927Z,28.75
2023-01-30T16:03:55.156Z,28.87
2023-01-30T16:09:22.308Z,29.07
2023-01-30T16:14:44.015Z,29.24
2023-01-30T16:20:07.866Z,28.96
2023-01-30T16:25:34.618Z,29.46
2023-01-30T16:31:08.333Z,29.09
2023-01-30T16:36:33.325Z,29.41
2023-01-30T16:41:56.833Z,30.19
2023-01-30T16:47:31.689Z,30.23
2023-01-30T16:52:55.611Z,30.54
2023-01-30T16:58:17.977Z,30.35
2023-01-30T17:03:43.695Z,30.58
2023-01-30T17:09:44.661Z,30.53
2023-01-30T17:15:12.270Z,30.61
2023-01-30T17:20:38.832Z,30.37
2023-01-30T17:26:01.212Z,29.93
2023-01-30T17:31:23.413Z,29.70
2023-01-30T17:36:46.754Z,29.45
2023-01-30T17:42:12.507Z,29.58
2023-01-30T17:47:35.907Z,29.60
2023-01-30T17:52:57.680Z,29.29
2023-01-30T17:58:19.552Z,29.23
2023-01-30T18:03:42.048Z,29.76
2023-01-30T18:09:05.205Z,29.95
2023-01-30T18:14:27.035Z,29.87
2023-01-30T18:19:48.845Z,29.79
2023-01-30T18:25:13.592Z,30.16
2023-01-30T18:30:35.385Z,30.49
2023-01-30T18:35:57.140Z,30.22
2023-01-30T18:41:22.059Z,30.29
2023-01-30T18:46:44.227Z,30.27
2023-01-30T18:52:06.022Z,30.25
2023-01-30T18:57:27.672Z,30.20
2023-01-30T19:02:53.464Z,29.83
2023-01-30T19:08:15.171Z,29.51
2023-01-30T19:13:37.598Z,29.63
2023-01-30T19:18:59.462Z,29.11
2023-01-30T19:24:21.370Z,29.67
2023-01-30T19:29:43.604Z,29.75
2023-01-30T19:35:05.864Z,29.83
2023-01-30T19:40:27.622Z,29.96
2023-01-30T19:45:59.564Z,30.07
2023-01-30T19:51:29.698Z,30.44
2023-01-30T19:56:52.012Z,30.55
2023-01-30T20:02:13.778Z,30.90
2023-01-30T20:07:37.360Z,31.39
2023-01-30T20:12:59.175Z,31.81
2023-01-30T20:18:20.910Z,31.99
2023-01-30T20:23:45.050Z,31.93
2023-01-30T20:29:08.608Z,32.49
2023-01-30T20:34:30.271Z,32.67
2023-01-30T20:39:52.529Z,33.37
2023-01-30T20:45:14.293Z,33.58
2023-01-30T20:50:36.101Z,33.27
2023-01-30T20:55:59.093Z,33.55
2023-01-30T21:01:23.131Z,32.91
2023-01-30T21:06:47.002Z,32.96
2023-01-30T21:12:09.049Z,32.84
2023-01-30T21:17:30.945Z,32.80
2023-01-30T21:22:53.126Z,32.92
2023-01-30T21:28:14.868Z,32.72
2023-01-30T21:33:36.712Z,32.76
2023-01-30T21:39:17.366Z,32.64
2023-01-30T21:44:39.299Z,32.73
2023-01-30T21:50:01.046Z,33.19
2023-01-30T21:55:22.864Z,33.27
2023-01-30T22:00:44.739Z,33.20
2023-01-30T22:06:10.866Z,33.39
2023-01-30T22:11:35.077Z,33.41
2023-01-30T22:16:56.818Z,33.37
2023-01-30T22:22:18.646Z,33.55
2023-01-30T22:27:40.336Z,33.25
2023-01-30T22:33:02.045Z,33.57
2023-01-30T22:38:24.471Z,33.41
2023-01-30T22:43:48.904Z,33.71
2023-01-30T22:49:10.901Z,33.35
2023-01-30T22:54:32.621Z,33.78
2023-01-30T22:59:54.378Z,33.78
2023-01-30T23:05:16.260Z,33.59
2023-01-30T23:10:41.114Z,33.70
2023-01-30T23:16:05.305Z,33.77
2023-01-30T23:21:30.216Z,33.64
2023-01-30T23:26:52.043Z,33.50
2023-01-30T23:32:15.187Z,33.93
2023-01-30T23:37:55.198Z,33.63
2023-01-30T23:43:17.283Z,33.73
2023-01-30T23:48:39.812Z,33.73
2023-01-30T23:54:02.265Z,33.76
2023-01-30T23:59:24.014Z,33.60
